createdAt,value
2022-11-01T00:01:27.880Z,5.30
2022-11-01T00:03:54.773Z,5.30
2022-11-01T00:06:21.920Z,5.30
2022-11-01T00:08:48.686Z,5.30
2022-11-01T00:11:17.275Z,5.30
2022-11-01T00:13:48.602Z,5.30
2022-11-01T00:16:16.247Z,5.20
2022-11-01T00:18:43.359Z,5.20
2022-11-01T00:21:11.176Z,5.30
2022-11-01T00:23:38.163Z,5.30
2022-11-01T00:26:05.487Z,5.30
2022-11-01T00:28:32.882Z,5.30
2022-11-01T00:31:00.185Z,5.30
2022-11-01T00:33:27.177Z,5.30
2022-11-01T00:35:54.202Z,5.20
2022-11-01T00:38:20.988Z,5.20
2022-11-01T00:40:47.786Z,5.20
2022-11-01T00:43:14.807Z,5.10
2022-11-01T00:45:44.533Z,5.20
2022-11-01T00:48:12.714Z,5.10
2022-11-01T00:50:40.058Z,5.10
2022-11-01T00:53:08.990Z,5.20
2022-11-01T00:55:36.167Z,5.10
2022-11-01T00:58:03.435Z,5.00
2022-11-01T01:00:30.506Z,5.00
2022-11-01T01:02:57.327Z,5.00
2022-11-01T01:05:24.108Z,5.00
2022-11-01T01:07:50.896Z,5.10
2022-11-01T01:10:18.017Z,5.10
2022-11-01T01:12:44.788Z,5.10
2022-11-01T01:15:11.831Z,5.10
2022-11-01T01:17:38.806Z,5.10
2022-11-01T01:20:06.019Z,5.00
2022-11-01T01:22:32.753Z,5.00
2022-11-01T01:24:59.699Z,5.00
2022-11-01T01:27:26.469Z,5.00
2022-11-01T01:29:53.336Z,5.00
2022-11-01T01:32:23.296Z,5.00
2022-11-01T01:34:50.861Z,5.00
2022-11-01T01:37:18.166Z,4.90
2022-11-01T01:39:44.959Z,4.90
2022-11-01T01:42:16.479Z,4.90
2022-11-01T01:44:52.168Z,4.90
2022-11-01T01:47:32.462Z,4.90
2022-11-01T01:50:15.397Z,4.80
2022-11-01T01:53:06.862Z,4.90
2022-11-01T01:55:59.793Z,4.80
2022-11-01T01:58:34.334Z,4.80
2022-11-01T02:01:01.227Z,4.80
2022-11-01T02:03:32.145Z,4.80
2022-11-01T02:06:09.562Z,4.70
2022-11-01T02:08:40.410Z,4.80
2022-11-01T02:11:08.250Z,4.70
2022-11-01T02:13:35.963Z,4.70
2022-11-01T02:16:21.365Z,4.60
2022-11-01T02:19:22.341Z,4.60
2022-11-01T02:22:01.019Z,4.60
2022-11-01T02:24:33.686Z,4.70
2022-11-01T02:27:05.956Z,4.70
2022-11-01T02:29:54.658Z,4.70
2022-11-01T02:32:25.975Z,4.70
2022-11-01T02:35:11.666Z,4.70
2022-11-01T02:37:38.393Z,4.60
2022-11-01T02:40:15.636Z,4.50
2022-11-01T02:42:46.548Z,4.50
2022-11-01T02:45:29.214Z,4.50
2022-11-01T02:48:01.066Z,4.50
2022-11-01T02:50:38.858Z,4.50
2022-11-01T02:53:06.595Z,4.50
2022-11-01T02:55:36.286Z,4.40
2022-11-01T02:58:28.676Z,4.40
2022-11-01T03:00:57.127Z,4.50
2022-11-01T03:03:32.327Z,4.50
2022-11-01T03:06:14.221Z,4.50
2022-11-01T03:08:59.276Z,4.50
2022-11-01T03:11:59.270Z,4.50
2022-11-01T03:14:47.771Z,4.50
2022-11-01T03:17:48.862Z,4.60
2022-11-01T03:20:47.319Z,4.50
2022-11-01T03:23:39.650Z,4.40
2022-11-01T03:26:12.095Z,4.30
2022-11-01T03:29:07.521Z,4.30
2022-11-01T03:31:36.991Z,4.20
2022-11-01T03:34:13.021Z,4.10
2022-11-01T03:36:42.824Z,4.10
2022-11-01T03:39:19.151Z,4.10
2022-11-01T03:41:51.158Z,4.10
2022-11-01T03:44:19.088Z,4.00
2022-11-01T03:46:47.145Z,4.00
2022-11-01T03:49:18.385Z,4.00
2022-11-01T03:51:45.990Z,4.00
2022-11-01T03:54:12.867Z,3.90
2022-11-01T03:56:40.780Z,3.90
2022-11-01T03:59:09.856Z,3.90
2022-11-01T04:01:37.041Z,3.90
2022-11-01T04:04:03.960Z,3.90
2022-11-01T04:06:30.793Z,4.00
2022-11-01T04:08:57.660Z,3.90
2022-11-01T04:11:24.539Z,4.00
2022-11-01T04:13:51.293Z,4.00
2022-11-01T04:16:37.139Z,4.00
2022-11-01T04:19:22.581Z,3.90
2022-11-01T04:21:49.376Z,3.90
2022-11-01T04:24:21.145Z,3.90
2022-11-01T04:26:48.422Z,3.80
2022-11-01T04:29:15.198Z,3.80
2022-11-01T04:31:42.014Z,3.90
2022-11-01T04:34:08.868Z,4.00
2022-11-01T04:36:37.667Z,4.00
2022-11-01T04:39:04.698Z,4.00
2022-11-01T04:41:31.483Z,3.90
2022-11-01T04:43:59.610Z,3.90
2022-11-01T04:46:29.693Z,3.80
2022-11-01T04:48:56.604Z,3.90
2022-11-01T04:51:23.617Z,3.90
2022-11-01T04:53:50.354Z,4.20
2022-11-01T04:56:17.154Z,4.70
2022-11-01T04:58:46.043Z,5.70
2022-11-01T05:01:14.682Z,6.90
2022-11-01T05:03:42.200Z,8.10
2022-11-01T05:06:09.135Z,9.50
2022-11-01T05:08:35.909Z,10.60
2022-11-01T05:11:02.796Z,11.70
2022-11-01T05:13:29.711Z,12.40
2022-11-01T05:18:43.612Z,14.00
2022-11-01T05:21:10.677Z,14.40
2022-11-01T05:23:37.559Z,14.30
2022-11-01T05:26:04.497Z,14.40
2022-11-01T05:28:31.347Z,14.70
2022-11-01T05:30:58.818Z,14.80
2022-11-01T05:33:25.721Z,15.00
2022-11-01T05:35:52.538Z,15.40
2022-11-01T05:38:19.365Z,15.80
2022-11-01T05:40:46.167Z,16.10
2022-11-01T05:43:12.927Z,16.40
2022-11-01T05:45:39.767Z,16.50
2022-11-01T05:48:06.704Z,16.70
2022-11-01T05:50:33.481Z,16.80
2022-11-01T05:53:10.539Z,17.00
2022-11-01T05:55:38.953Z,17.00
2022-11-01T05:58:06.405Z,17.50
2022-11-01T06:00:36.035Z,17.90
2022-11-01T06:03:03.771Z,17.90
2022-11-01T06:05:31.178Z,17.70
2022-11-01T06:08:00.499Z,17.10
2022-11-01T06:10:27.569Z,16.90
2022-11-01T06:12:54.944Z,16.90
2022-11-01T06:15:21.996Z,16.70
2022-11-01T06:17:57.258Z,16.50
2022-11-01T06:20:25.128Z,16.40
2022-11-01T06:22:51.939Z,16.50
2022-11-01T06:25:18.749Z,16.10
2022-11-01T06:27:45.559Z,16.00
2022-11-01T06:30:12.607Z,16.20
2022-11-01T06:32:39.375Z,16.10
2022-11-01T06:35:06.730Z,16.00
2022-11-01T06:37:33.490Z,16.00
2022-11-01T06:40:00.296Z,16.50
2022-11-01T06:42:27.075Z,16.60
2022-11-01T06:44:53.822Z,16.50
2022-11-01T06:47:20.590Z,16.00
2022-11-01T06:49:47.373Z,15.20
2022-11-01T06:52:14.126Z,15.30
2022-11-01T06:54:40.870Z,15.20
2022-11-01T06:57:08.093Z,15.20
2022-11-01T06:59:34.889Z,15.50
2022-11-01T07:02:01.761Z,15.60
2022-11-01T07:04:29.749Z,15.90
2022-11-01T07:06:56.525Z,16.20
2022-11-01T07:09:23.363Z,16.50
2022-11-01T07:11:50.143Z,16.20
2022-11-01T07:14:16.985Z,15.90
2022-11-01T07:16:43.782Z,15.90
2022-11-01T07:19:10.617Z,15.90
2022-11-01T07:21:37.799Z,16.30
2022-11-01T07:24:05.387Z,16.30
2022-11-01T07:26:32.210Z,16.30
2022-11-01T07:28:59.000Z,16.30
2022-11-01T07:31:25.801Z,16.40
2022-11-01T07:33:53.629Z,16.20
2022-11-01T07:36:20.428Z,16.20
2022-11-01T07:38:47.215Z,16.20
2022-11-01T07:41:14.040Z,16.20
2022-11-01T07:43:40.823Z,16.30
2022-11-01T07:46:07.701Z,16.30
2022-11-01T07:48:36.975Z,16.10
2022-11-01T07:51:05.979Z,16.20
2022-11-01T07:53:32.940Z,16.20
2022-11-01T07:56:02.792Z,16.40
2022-11-01T07:58:29.852Z,16.30
2022-11-01T08:00:56.772Z,16.20
2022-11-01T08:03:24.104Z,15.80
2022-11-01T08:05:51.186Z,15.60
2022-11-01T08:08:18.195Z,15.40
2022-11-01T08:10:45.813Z,15.30
2022-11-01T08:13:21.620Z,15.10
2022-11-01T08:15:49.512Z,14.70
2022-11-01T08:18:17.644Z,14.50
2022-11-01T08:20:44.449Z,14.30
2022-11-01T08:23:11.914Z,14.20
2022-11-01T08:25:39.222Z,14.10
2022-11-01T08:28:10.723Z,13.90
2022-11-01T08:30:39.172Z,13.90
2022-11-01T08:33:06.409Z,13.80
2022-11-01T08:35:34.368Z,13.60
2022-11-01T08:38:03.397Z,13.40
2022-11-01T08:40:31.602Z,13.20
2022-11-01T08:42:58.988Z,13.10
2022-11-01T08:45:26.498Z,13.20
2022-11-01T08:48:05.117Z,12.80
2022-11-01T08:50:36.531Z,12.70
2022-11-01T08:53:08.364Z,12.60
2022-11-01T08:55:37.971Z,12.60
2022-11-01T08:58:06.028Z,12.60
2022-11-01T09:00:34.486Z,12.70
2022-11-01T09:03:01.482Z,12.90
2022-11-01T09:05:31.577Z,13.00
2022-11-01T09:08:00.133Z,13.00
2022-11-01T09:10:28.519Z,13.00
2022-11-01T09:12:55.334Z,12.90
2022-11-01T09:15:22.261Z,12.80
2022-11-01T09:17:49.069Z,12.90
2022-11-01T09:20:15.938Z,13.10
2022-11-01T09:22:42.720Z,13.10
2022-11-01T09:25:10.031Z,13.30
2022-11-01T09:27:36.984Z,13.40
2022-11-01T09:30:07.207Z,13.30
2022-11-01T09:32:33.964Z,13.10
2022-11-01T09:35:00.815Z,13.20
2022-11-01T09:37:27.743Z,13.30
2022-11-01T09:39:54.480Z,13.20
2022-11-01T09:42:28.577Z,13.30
2022-11-01T09:45:00.829Z,13.50
2022-11-01T09:47:30.296Z,13.50
2022-11-01T09:50:20.408Z,13.60
2022-11-01T09:52:47.704Z,13.60
2022-11-01T09:55:16.364Z,13.50
2022-11-01T09:58:06.149Z,13.70
2022-11-01T10:00:40.191Z,13.60
2022-11-01T10:03:21.302Z,13.50
2022-11-01T10:06:09.941Z,13.80
2022-11-01T10:09:06.887Z,13.90
2022-11-01T10:11:56.843Z,14.00
2022-11-01T10:14:37.053Z,14.10
2022-11-01T10:17:11.845Z,14.10
2022-11-01T10:19:42.640Z,14.10
2022-11-01T10:22:25.503Z,14.20
2022-11-01T10:25:23.563Z,14.10
2022-11-01T10:27:53.578Z,14.30
2022-11-01T10:30:21.019Z,14.40
2022-11-01T10:32:58.154Z,14.30
2022-11-01T10:35:29.320Z,14.50
2022-11-01T10:38:24.844Z,14.40
2022-11-01T10:41:24.247Z,14.40
2022-11-01T10:43:56.150Z,14.50
2022-11-01T10:46:38.412Z,14.70
2022-11-01T10:49:14.907Z,14.80
2022-11-01T10:51:42.252Z,14.70
2022-11-01T10:54:17.875Z,14.50
2022-11-01T10:56:47.975Z,14.60
2022-11-01T10:59:23.885Z,14.70
2022-11-01T11:01:53.105Z,14.80
2022-11-01T11:04:24.111Z,14.90
2022-11-01T11:06:51.869Z,15.10
2022-11-01T11:09:28.434Z,15.10
2022-11-01T11:12:06.873Z,15.10
2022-11-01T11:14:34.838Z,15.20
2022-11-01T11:17:03.934Z,15.10
2022-11-01T11:19:30.661Z,15.10
2022-11-01T11:21:59.220Z,15.10
2022-11-01T11:24:28.983Z,15.30
2022-11-01T11:26:57.006Z,15.20
2022-11-01T11:29:33.652Z,15.10
2022-11-01T11:32:01.366Z,15.10
2022-11-01T11:34:34.248Z,15.20
2022-11-01T11:37:03.309Z,15.40
2022-11-01T11:39:36.037Z,15.40
2022-11-01T11:42:21.820Z,15.40
2022-11-01T11:44:55.389Z,15.60
2022-11-01T11:47:28.346Z,15.50
2022-11-01T11:49:58.451Z,15.40
2022-11-01T11:52:38.587Z,15.50
2022-11-01T11:55:25.139Z,15.60
2022-11-01T11:57:52.832Z,15.70
2022-11-01T12:00:24.435Z,15.50
2022-11-01T12:02:51.266Z,15.30
2022-11-01T12:05:20.091Z,15.00
2022-11-01T12:07:49.963Z,15.10
2022-11-01T12:10:37.448Z,15.00
2022-11-01T12:13:34.141Z,14.80
2022-11-01T12:16:09.985Z,14.90
2022-11-01T12:18:46.982Z,14.80
2022-11-01T12:21:29.856Z,14.80
2022-11-01T12:24:19.874Z,14.90
2022-11-01T12:26:48.572Z,15.00
2022-11-01T12:29:30.909Z,15.00
2022-11-01T12:32:03.511Z,14.80
2022-11-01T12:34:38.359Z,14.40
2022-11-01T12:37:19.474Z,14.30
2022-11-01T12:39:59.346Z,14.20
2022-11-01T12:42:33.918Z,14.10
2022-11-01T12:45:12.328Z,14.20
2022-11-01T12:47:50.605Z,14.30
2022-11-01T12:50:43.791Z,14.10
2022-11-01T12:53:19.428Z,14.00
2022-11-01T12:55:47.194Z,13.90
2022-11-01T12:58:21.969Z,13.80
2022-11-01T13:01:07.760Z,13.70
2022-11-01T13:03:41.774Z,13.70
2022-11-01T13:06:33.351Z,13.70
2022-11-01T13:09:18.639Z,13.60
2022-11-01T13:11:48.206Z,13.50
2022-11-01T13:14:24.203Z,13.40
2022-11-01T13:17:23.967Z,13.40
2022-11-01T13:20:21.993Z,13.20
2022-11-01T13:22:59.896Z,13.10
2022-11-01T13:25:26.792Z,13.10
2022-11-01T13:28:05.495Z,13.00
2022-11-01T13:30:34.543Z,13.00
2022-11-01T13:33:31.486Z,13.00
2022-11-01T13:36:13.369Z,12.90
2022-11-01T13:39:01.611Z,12.90
2022-11-01T13:41:28.462Z,12.60
2022-11-01T13:44:03.213Z,12.30
2022-11-01T13:47:08.038Z,12.10
2022-11-01T13:49:34.858Z,11.80
2022-11-01T13:52:23.560Z,11.80
2022-11-01T13:55:21.224Z,11.90
2022-11-01T13:57:48.695Z,11.80
2022-11-01T14:00:44.846Z,11.80
2022-11-01T14:03:21.978Z,11.80
2022-11-01T14:06:11.644Z,11.70
2022-11-01T14:08:47.578Z,11.50
2022-11-01T14:11:34.156Z,11.40
2022-11-01T14:14:20.892Z,11.20
2022-11-01T14:16:47.685Z,11.10
2022-11-01T14:19:20.841Z,11.00
2022-11-01T14:21:49.705Z,11.00
2022-11-01T14:24:33.577Z,10.90
2022-11-01T14:27:26.615Z,10.90
2022-11-01T14:29:54.384Z,11.00
2022-11-01T14:32:24.502Z,11.00
2022-11-01T14:35:26.055Z,10.90
2022-11-01T14:37:54.644Z,10.90
2022-11-01T14:40:29.312Z,11.00
2022-11-01T14:43:13.080Z,10.90
2022-11-01T14:45:45.080Z,10.80
2022-11-01T14:48:17.599Z,10.70
2022-11-01T14:50:57.436Z,10.70
2022-11-01T14:53:37.450Z,10.70
2022-11-01T14:56:27.604Z,10.60
2022-11-01T14:59:12.596Z,10.70
2022-11-01T15:01:48.086Z,10.60
2022-11-01T15:04:24.154Z,10.60
2022-11-01T15:06:51.520Z,10.60
2022-11-01T15:09:30.608Z,10.70
2022-11-01T15:12:08.276Z,10.50
2022-11-01T15:14:37.353Z,10.50
2022-11-01T15:17:05.789Z,10.30
2022-11-01T15:19:38.032Z,10.20
2022-11-01T15:22:06.499Z,10.20
2022-11-01T15:24:34.878Z,10.20
2022-11-01T15:27:13.711Z,10.20
2022-11-01T15:29:43.267Z,10.10
2022-11-01T15:32:24.995Z,10.10
2022-11-01T15:34:53.849Z,10.10
2022-11-01T15:37:23.400Z,9.90
2022-11-01T15:39:50.410Z,10.00
2022-11-01T15:42:24.076Z,10.00
2022-11-01T15:44:51.007Z,10.10
2022-11-01T15:47:22.432Z,9.90
2022-11-01T15:50:06.681Z,9.80
2022-11-01T15:52:35.652Z,9.90
2022-11-01T15:55:05.624Z,9.80
2022-11-01T15:57:42.139Z,9.90
2022-11-01T16:00:19.504Z,9.90
2022-11-01T16:03:05.742Z,9.80
2022-11-01T16:05:38.823Z,9.80
2022-11-01T16:08:08.370Z,9.80
2022-11-01T16:10:35.918Z,9.90
2022-11-01T16:13:04.826Z,9.90
2022-11-01T16:15:34.425Z,9.90
2022-11-01T16:18:13.983Z,10.00
2022-11-01T16:20:41.226Z,10.00
2022-11-01T16:23:09.637Z,10.00
2022-11-01T16:25:38.054Z,10.00
2022-11-01T16:28:26.572Z,10.00
2022-11-01T16:30:55.166Z,10.10
2022-11-01T16:33:25.307Z,10.10
2022-11-01T16:35:53.656Z,10.00
2022-11-01T16:38:24.853Z,10.00
2022-11-01T16:40:55.199Z,10.10
2022-11-01T16:43:23.484Z,10.10
2022-11-01T16:45:51.299Z,10.10
2022-11-01T16:48:27.369Z,10.20
2022-11-01T16:50:56.009Z,10.20
2022-11-01T16:53:25.657Z,10.20
2022-11-01T16:56:10.812Z,10.30
2022-11-01T16:58:47.202Z,10.40
2022-11-01T17:01:22.443Z,10.30
2022-11-01T17:03:50.219Z,10.50
2022-11-01T17:06:17.117Z,10.50
2022-11-01T17:08:44.034Z,10.30
2022-11-01T17:11:10.814Z,10.20
2022-11-01T17:13:37.783Z,10.10
2022-11-01T17:16:06.213Z,10.10
2022-11-01T17:18:38.418Z,10.20
2022-11-01T17:21:08.083Z,10.20
2022-11-01T17:23:35.272Z,10.20
2022-11-01T17:26:04.933Z,10.10
2022-11-01T17:28:31.790Z,10.20
2022-11-01T17:30:58.566Z,10.10
2022-11-01T17:33:25.330Z,10.20
2022-11-01T17:35:52.332Z,10.00
2022-11-01T17:38:33.468Z,10.00
2022-11-01T17:41:02.209Z,9.90
2022-11-01T17:43:28.978Z,9.90
2022-11-01T17:45:58.485Z,9.80
2022-11-01T17:48:25.698Z,9.80
2022-11-01T17:50:52.481Z,9.90
2022-11-01T17:53:19.539Z,9.90
2022-11-01T17:55:46.556Z,9.90
2022-11-01T17:58:13.420Z,9.90
2022-11-01T18:00:41.901Z,10.00
2022-11-01T18:03:10.248Z,10.00
2022-11-01T18:05:37.452Z,9.90
2022-11-01T18:08:20.832Z,9.80
2022-11-01T18:11:05.437Z,9.70
2022-11-01T18:13:46.525Z,9.80
2022-11-01T18:16:19.352Z,9.70
2022-11-01T18:19:04.275Z,9.80
2022-11-01T18:21:38.969Z,9.80
2022-11-01T18:24:21.280Z,9.90
2022-11-01T18:26:49.504Z,9.80
2022-11-01T18:29:24.140Z,9.80
2022-11-01T18:31:59.848Z,9.80
2022-11-01T18:34:47.847Z,9.80
2022-11-01T18:37:24.771Z,9.70
2022-11-01T18:40:03.470Z,9.70
2022-11-01T18:42:30.733Z,9.60
2022-11-01T18:45:01.846Z,9.60
2022-11-01T18:47:34.828Z,9.60
2022-11-01T18:50:12.793Z,9.60
2022-11-01T18:52:43.044Z,9.30
2022-11-01T18:55:13.803Z,9.50
2022-11-01T18:57:40.767Z,9.50
2022-11-01T19:00:13.971Z,9.50
2022-11-01T19:02:41.410Z,9.50
2022-11-01T19:05:17.995Z,9.50
2022-11-01T19:08:10.246Z,9.50
2022-11-01T19:10:38.389Z,9.50
2022-11-01T19:13:12.771Z,9.40
2022-11-01T19:15:40.529Z,9.40
2022-11-01T19:18:19.128Z,9.40
2022-11-01T19:20:50.586Z,9.40
2022-11-01T19:23:23.474Z,9.40
2022-11-01T19:25:51.571Z,9.40
2022-11-01T19:28:35.077Z,9.30
2022-11-01T19:31:14.528Z,9.20
2022-11-01T19:33:44.712Z,9.30
2022-11-01T19:36:17.487Z,9.30
2022-11-01T19:38:48.136Z,9.30
2022-11-01T19:41:19.666Z,9.30
2022-11-01T19:43:46.568Z,9.30
2022-11-01T19:46:18.677Z,9.30
2022-11-01T19:48:46.209Z,9.30
2022-11-01T19:51:17.600Z,9.30
2022-11-01T19:53:45.587Z,9.30
2022-11-01T19:56:23.775Z,9.30
2022-11-01T19:59:03.631Z,9.40
2022-11-01T20:01:42.404Z,9.30
2022-11-01T20:04:27.613Z,9.30
2022-11-01T20:07:01.395Z,9.20
2022-11-01T20:09:30.757Z,9.30
2022-11-01T20:11:57.730Z,9.20
2022-11-01T20:14:24.648Z,9.10
2022-11-01T20:16:51.947Z,9.10
2022-11-01T20:19:18.953Z,9.20
2022-11-01T20:21:46.247Z,9.10
2022-11-01T20:24:13.432Z,9.10
2022-11-01T20:26:40.513Z,9.10
2022-11-01T20:29:07.497Z,9.20
2022-11-01T20:31:34.386Z,9.20
2022-11-01T20:34:01.350Z,9.20
2022-11-01T20:36:28.659Z,9.20
2022-11-01T20:38:55.578Z,9.20
2022-11-01T20:41:22.732Z,9.30
2022-11-01T20:43:49.711Z,9.40
2022-11-01T20:46:16.854Z,9.50
2022-11-01T20:48:45.228Z,9.40
2022-11-01T20:51:13.288Z,9.30
2022-11-01T20:53:40.492Z,9.20
2022-11-01T20:56:08.145Z,9.40
2022-11-01T20:58:40.974Z,9.40
2022-11-01T21:01:19.149Z,9.30
2022-11-01T21:03:46.299Z,9.40
2022-11-01T21:06:17.679Z,9.30
2022-11-01T21:08:49.197Z,9.20
2022-11-01T21:11:43.896Z,9.20
2022-11-01T21:14:15.820Z,9.20
2022-11-01T21:16:43.120Z,9.20
2022-11-01T21:19:20.408Z,9.30
2022-11-01T21:21:50.878Z,9.30
2022-11-01T21:24:23.689Z,9.30
2022-11-01T21:26:55.758Z,9.30
2022-11-01T21:29:29.852Z,9.20
2022-11-01T21:31:57.064Z,9.40
2022-11-01T21:34:29.665Z,9.50
2022-11-01T21:37:00.861Z,9.40
2022-11-01T21:39:29.635Z,9.30
2022-11-01T21:41:57.448Z,9.20
2022-11-01T21:44:39.858Z,9.10
2022-11-01T21:47:19.735Z,9.00
2022-11-01T21:49:46.622Z,9.10
2022-11-01T21:52:13.751Z,9.00
2022-11-01T21:54:41.498Z,9.10
2022-11-01T21:57:10.469Z,9.30
2022-11-01T21:59:37.726Z,9.30
2022-11-01T22:02:06.030Z,9.20
2022-11-01T22:04:33.065Z,9.00
2022-11-01T22:07:01.743Z,8.90
2022-11-01T22:09:29.072Z,9.00
2022-11-01T22:11:56.295Z,9.00
2022-11-01T22:14:24.389Z,8.80
2022-11-01T22:16:52.022Z,9.00
2022-11-01T22:19:18.879Z,8.90
2022-11-01T22:24:17.940Z,8.80
2022-11-01T22:26:44.738Z,8.70
2022-11-01T22:29:11.531Z,8.70
2022-11-01T22:31:38.300Z,8.70
2022-11-01T22:34:05.083Z,8.70
2022-11-01T22:36:35.388Z,8.70
2022-11-01T22:39:10.472Z,8.80
2022-11-01T22:41:39.767Z,8.80
2022-11-01T22:44:14.527Z,8.70
2022-11-01T22:46:56.883Z,8.70
2022-11-01T22:49:27.314Z,8.70
2022-11-01T22:51:55.531Z,8.50
2022-11-01T22:54:34.559Z,8.60
2022-11-01T22:57:08.683Z,8.60
2022-11-01T22:59:46.845Z,8.60
2022-11-01T23:02:28.161Z,8.60
2022-11-01T23:05:23.906Z,8.60
2022-11-01T23:08:11.558Z,8.60
2022-11-01T23:10:38.359Z,8.60
2022-11-01T23:13:29.665Z,8.60
2022-11-01T23:16:25.451Z,8.60
2022-11-01T23:18:59.317Z,8.40
2022-11-01T23:21:27.296Z,8.30
2022-11-01T23:23:54.986Z,8.30
2022-11-01T23:26:23.835Z,8.30
2022-11-01T23:28:54.515Z,8.30
2022-11-01T23:31:23.450Z,8.20
2022-11-01T23:33:50.848Z,8.20
2022-11-01T23:36:25.929Z,8.10
2022-11-01T23:39:01.689Z,8.10
2022-11-01T23:41:33.154Z,8.20
2022-11-01T23:44:04.256Z,8.20
2022-11-01T23:46:31.007Z,8.30
2022-11-01T23:49:10.771Z,8.10
2022-11-01T23:51:37.630Z,8.10
2022-11-01T23:54:06.537Z,8.10
2022-11-01T23:56:33.344Z,8.10
2022-11-01T23:59:04.009Z,8.10
